sensor_id;sensor_type;location;lat;lon;timestamp;pressure;altitude;pressure_sealevel;temperature;humidity
38786;BME280;24535;45.508;12.252;2023-02-01T00:01:44;102100.66;;;5.80;64.20
38786;BME280;24535;45.508;12.252;2023-02-01T00:04:09;102098.97;;;5.77;63.97
38786;BME280;24535;45.508;12.252;2023-02-01T00:06:35;102107.72;;;5.75;63.79
38786;BME280;24535;45.508;12.252;2023-02-01T00:09:01;102098.25;;;5.70;64.24
38786;BME280;24535;45.508;12.252;2023-02-01T00:11:26;102113.00;;;5.73;64.61
38786;BME280;24535;45.508;12.252;2023-02-01T00:13:52;102107.81;;;5.72;64.67
38786;BME280;24535;45.508;12.252;2023-02-01T00:16:23;102107.72;;;5.75;64.77
38786;BME280;24535;45.508;12.252;2023-02-01T00:18:50;102123.41;;;5.76;64.70
38786;BME280;24535;45.508;12.252;2023-02-01T00:21:19;102130.34;;;5.77;64.57
38786;BME280;24535;45.508;12.252;2023-02-01T00:23:45;102125.16;;;5.76;64.58
38786;BME280;24535;45.508;12.252;2023-02-01T00:26:16;102119.81;;;5.79;64.00
38786;BME280;24535;45.508;12.252;2023-02-01T00:28:42;102114.69;;;5.76;64.11
38786;BME280;24535;45.508;12.252;2023-02-01T00:31:08;102107.72;;;5.76;64.43
38786;BME280;24535;45.508;12.252;2023-02-01T00:33:33;102109.47;;;5.76;64.18
38786;BME280;24535;45.508;12.252;2023-02-01T00:36:01;102089.53;;;5.70;63.80
38786;BME280;24535;45.508;12.252;2023-02-01T00:38:28;102089.53;;;5.72;64.22
38786;BME280;24535;45.508;12.252;2023-02-01T00:41:02;102093.88;;;5.71;64.14
38786;BME280;24535;45.508;12.252;2023-02-01T00:43:28;102089.53;;;5.70;63.82
38786;BME280;24535;45.508;12.252;2023-02-01T00:45:53;102088.75;;;5.68;64.16
38786;BME280;24535;45.508;12.252;2023-02-01T00:48:19;102098.34;;;5.66;63.80
38786;BME280;24535;45.508;12.252;2023-02-01T00:50:44;102100.16;;;5.64;63.76
38786;BME280;24535;45.508;12.252;2023-02-01T00:53:10;102092.41;;;5.61;63.55
38786;BME280;24535;45.508;12.252;2023-02-01T00:55:36;102098.59;;;5.57;63.61
38786;BME280;24535;45.508;12.252;2023-02-01T00:58:02;102094.28;;;5.54;64.04
38786;BME280;24535;45.508;12.252;2023-02-01T01:00:28;102098.72;;;5.52;63.69
38786;BME280;24535;45.508;12.252;2023-02-01T01:02:54;102094.44;;;5.48;63.97
38786;BME280;24535;45.508;12.252;2023-02-01T01:05:20;102094.44;;;5.48;64.25
38786;BME280;24535;45.508;12.252;2023-02-01T01:07:45;102098.03;;;5.44;63.96
38786;BME280;24535;45.508;12.252;2023-02-01T01:10:14;102086.78;;;5.40;64.65
38786;BME280;24535;45.508;12.252;2023-02-01T01:12:39;102091.03;;;5.44;64.32
38786;BME280;24535;45.508;12.252;2023-02-01T01:15:06;102091.03;;;5.44;64.43
38786;BME280;24535;45.508;12.252;2023-02-01T01:17:32;102086.72;;;5.43;64.27
38786;BME280;24535;45.508;12.252;2023-02-01T01:19:58;102090.13;;;5.47;64.33
38786;BME280;24535;45.508;12.252;2023-02-01T01:22:23;102093.59;;;5.46;63.86
38786;BME280;24535;45.508;12.252;2023-02-01T01:24:49;102090.19;;;5.44;63.91
38786;BME280;24535;45.508;12.252;2023-02-01T01:27:14;102103.28;;;5.42;63.67
38786;BME280;24535;45.508;12.252;2023-02-01T01:29:40;102106.84;;;5.40;64.04
38786;BME280;24535;45.508;12.252;2023-02-01T01:32:05;102092.06;;;5.39;63.90
38786;BME280;24535;45.508;12.252;2023-02-01T01:34:31;102092.06;;;5.39;63.97
38786;BME280;24535;45.508;12.252;2023-02-01T01:36:56;102099.91;;;5.39;64.04
38786;BME280;24535;45.508;12.252;2023-02-01T01:39:22;102101.66;;;5.37;64.29
38786;BME280;24535;45.508;12.252;2023-02-01T01:41:47;102106.00;;;5.38;63.78
38786;BME280;24535;45.508;12.252;2023-02-01T01:47:16;102100.88;;;5.33;63.92
38786;BME280;24535;45.508;12.252;2023-02-01T01:49:42;102098.31;;;5.32;63.78
38786;BME280;24535;45.508;12.252;2023-02-01T01:52:08;102098.31;;;5.32;63.78
38786;BME280;24535;45.508;12.252;2023-02-01T01:54:40;102109.66;;;5.31;64.17
38786;BME280;24535;45.508;12.252;2023-02-01T01:57:14;102100.94;;;5.30;64.21
38786;BME280;24535;45.508;12.252;2023-02-01T01:59:41;102095.72;;;5.30;64.34
38786;BME280;24535;45.508;12.252;2023-02-01T02:02:09;102082.69;;;5.29;64.23
38786;BME280;24535;45.508;12.252;2023-02-01T02:04:35;102074.88;;;5.29;64.07
38786;BME280;24535;45.508;12.252;2023-02-01T02:07:09;102067.03;;;5.29;64.66
38786;BME280;24535;45.508;12.252;2023-02-01T02:09:35;102061.00;;;5.27;64.40
38786;BME280;24535;45.508;12.252;2023-02-01T02:12:00;102056.69;;;5.24;64.60
38786;BME280;24535;45.508;12.252;2023-02-01T02:14:26;102053.22;;;5.24;65.28
38786;BME280;24535;45.508;12.252;2023-02-01T02:22:40;102060.41;;;5.51;65.05
38786;BME280;24535;45.508;12.252;2023-02-01T02:33:14;102040.00;;;5.65;64.04
38786;BME280;24535;45.508;12.252;2023-02-01T02:38:47;102039.84;;;5.72;63.65
38786;BME280;24535;45.508;12.252;2023-02-01T02:44:21;102030.16;;;5.75;63.05
38786;BME280;24535;45.508;12.252;2023-02-01T02:47:11;102025.72;;;5.79;62.92
38786;BME280;24535;45.508;12.252;2023-02-01T02:49:58;102020.47;;;5.79;63.00
38786;BME280;24535;45.508;12.252;2023-02-01T02:53:08;102031.03;;;5.76;62.74
38786;BME280;24535;45.508;12.252;2023-02-01T02:55:56;102035.38;;;5.75;63.14
38786;BME280;24535;45.508;12.252;2023-02-01T02:58:43;102038.91;;;5.74;62.76
38786;BME280;24535;45.508;12.252;2023-02-01T03:01:28;102042.38;;;5.75;62.76
38786;BME280;24535;45.508;12.252;2023-02-01T03:04:13;102044.19;;;5.71;62.45
38786;BME280;24535;45.508;12.252;2023-02-01T03:06:43;102049.47;;;5.69;62.30
38786;BME280;24535;45.508;12.252;2023-02-01T03:09:13;102051.25;;;5.69;62.15
38786;BME280;24535;45.508;12.252;2023-02-01T03:11:44;102053.91;;;5.67;62.19
38786;BME280;24535;45.508;12.252;2023-02-01T03:14:33;102057.50;;;5.63;62.38
38786;BME280;24535;45.508;12.252;2023-02-01T03:17:14;102053.97;;;5.64;62.24
38786;BME280;24535;45.508;12.252;2023-02-01T03:19:43;102044.50;;;5.59;62.01
38786;BME280;24535;45.508;12.252;2023-02-01T03:22:20;102038.44;;;5.58;62.01
38786;BME280;24535;45.508;12.252;2023-02-01T03:25:01;102042.81;;;5.58;62.67
38786;BME280;24535;45.508;12.252;2023-02-01T03:32:35;102032.50;;;5.52;62.19
38786;BME280;24535;45.508;12.252;2023-02-01T03:35:26;102044.72;;;5.51;62.28
38786;BME280;24535;45.508;12.252;2023-02-01T03:38:01;102042.25;;;5.45;61.64
38786;BME280;24535;45.508;12.252;2023-02-01T03:40:27;102044.81;;;5.46;62.19
38786;BME280;24535;45.508;12.252;2023-02-01T03:42:55;102047.47;;;5.45;62.14
38786;BME280;24535;45.508;12.252;2023-02-01T03:45:28;102064.88;;;5.46;62.20
38786;BME280;24535;45.508;12.252;2023-02-01T03:47:58;102064.00;;;5.47;62.62
38786;BME280;24535;45.508;12.252;2023-02-01T03:50:26;102065.69;;;5.48;62.03
38786;BME280;24535;45.508;12.252;2023-02-01T03:53:09;102064.88;;;5.46;62.21
38786;BME280;24535;45.508;12.252;2023-02-01T03:55:36;102059.72;;;5.43;61.72
38786;BME280;24535;45.508;12.252;2023-02-01T03:58:04;102056.34;;;5.39;61.76
38786;BME280;24535;45.508;12.252;2023-02-01T04:00:31;102059.91;;;5.35;62.02
38786;BME280;24535;45.508;12.252;2023-02-01T04:02:56;102059.06;;;5.33;62.07
38786;BME280;24535;45.508;12.252;2023-02-01T04:05:22;102062.63;;;5.31;62.29
38786;BME280;24535;45.508;12.252;2023-02-01T04:07:48;102066.13;;;5.30;62.32
38786;BME280;24535;45.508;12.252;2023-02-01T04:10:14;102072.25;;;5.29;62.17
38786;BME280;24535;45.508;12.252;2023-02-01T04:12:39;102065.28;;;5.29;62.42
38786;BME280;24535;45.508;12.252;2023-02-01T04:15:05;102061.81;;;5.29;62.31
38786;BME280;24535;45.508;12.252;2023-02-01T04:17:31;102065.22;;;5.32;62.72
38786;BME280;24535;45.508;12.252;2023-02-01T04:19:56;102066.09;;;5.31;62.24
38786;BME280;24535;45.508;12.252;2023-02-01T04:22:22;102066.91;;;5.35;62.50
38786;BME280;24535;45.508;12.252;2023-02-01T04:24:48;102065.94;;;5.37;62.72
38786;BME280;24535;45.508;12.252;2023-02-01T04:27:13;102066.75;;;5.41;62.64
38786;BME280;24535;45.508;12.252;2023-02-01T04:29:39;102069.34;;;5.41;62.70
38786;BME280;24535;45.508;12.252;2023-02-01T04:32:05;102073.59;;;5.45;62.33
38786;BME280;24535;45.508;12.252;2023-02-01T04:34:30;102066.63;;;5.45;62.83
38786;BME280;24535;45.508;12.252;2023-02-01T04:36:56;102062.19;;;5.49;62.71
38786;BME280;24535;45.508;12.252;2023-02-01T04:39:22;102072.56;;;5.52;63.05
38786;BME280;24535;45.508;12.252;2023-02-01T04:41:47;102069.91;;;5.54;62.89
38786;BME280;24535;45.508;12.252;2023-02-01T04:44:15;102078.47;;;5.59;62.82
38786;BME280;24535;45.508;12.252;2023-02-01T04:46:41;102065.47;;;5.57;62.88
38786;BME280;24535;45.508;12.252;2023-02-01T04:49:09;102059.28;;;5.61;62.56
38786;BME280;24535;45.508;12.252;2023-02-01T04:51:34;102068.00;;;5.60;62.50
38786;BME280;24535;45.508;12.252;2023-02-01T04:54:00;102048.03;;;5.58;62.56
38786;BME280;24535;45.508;12.252;2023-02-01T04:56:25;102051.50;;;5.58;62.21
38786;BME280;24535;45.508;12.252;2023-02-01T04:58:51;102054.91;;;5.62;62.46
38786;BME280;24535;45.508;12.252;2023-02-01T05:01:17;102043.53;;;5.63;62.90
38786;BME280;24535;45.508;12.252;2023-02-01T05:03:43;102046.94;;;5.66;62.89
38786;BME280;24535;45.508;12.252;2023-02-01T05:06:08;102058.09;;;5.73;63.22
38786;BME280;24535;45.508;12.252;2023-02-01T05:08:34;102056.28;;;5.77;62.32
38786;BME280;24535;45.508;12.252;2023-02-01T05:10:59;102053.59;;;5.78;62.50
38786;BME280;24535;45.508;12.252;2023-02-01T05:13:28;102055.31;;;5.81;62.12
38786;BME280;24535;45.508;12.252;2023-02-01T05:16:12;102046.53;;;5.82;62.13
38786;BME280;24535;45.508;12.252;2023-02-01T05:18:38;102048.25;;;5.83;62.05
38786;BME280;24535;45.508;12.252;2023-02-01T05:21:03;102043.94;;;5.82;61.93
38786;BME280;24535;45.508;12.252;2023-02-01T05:23:29;102060.53;;;5.81;61.70
38786;BME280;24535;45.508;12.252;2023-02-01T05:25:59;102059.69;;;5.79;61.74
38786;BME280;24535;45.508;12.252;2023-02-01T05:28:26;102057.19;;;5.76;62.01
38786;BME280;24535;45.508;12.252;2023-02-01T05:30:51;102070.25;;;5.76;61.80
38786;BME280;24535;45.508;12.252;2023-02-01T05:33:17;102072.88;;;5.74;61.66
38786;BME280;24535;45.508;12.252;2023-02-01T05:35:42;102075.47;;;5.76;62.01
38786;BME280;24535;45.508;12.252;2023-02-01T05:38:08;102062.44;;;5.74;62.09
38786;BME280;24535;45.508;12.252;2023-02-01T05:40:34;102065.09;;;5.73;61.67
38786;BME280;24535;45.508;12.252;2023-02-01T05:42:59;102059.03;;;5.70;61.69
38786;BME280;24535;45.508;12.252;2023-02-01T05:45:25;102059.94;;;5.69;61.64
38786;BME280;24535;45.508;12.252;2023-02-01T05:47:51;102059.97;;;5.68;62.40
38786;BME280;24535;45.508;12.252;2023-02-01T05:50:16;102062.50;;;5.71;62.43
38786;BME280;24535;45.508;12.252;2023-02-01T05:52:42;102064.19;;;5.74;62.21
38786;BME280;24535;45.508;12.252;2023-02-01T05:55:07;102058.91;;;5.75;61.42
38786;BME280;24535;45.508;12.252;2023-02-01T05:57:33;102059.75;;;5.77;61.96
38786;BME280;24535;45.508;12.252;2023-02-01T05:59:59;102071.91;;;5.78;61.81
38786;BME280;24535;45.508;12.252;2023-02-01T06:02:24;102077.19;;;5.77;61.80
38786;BME280;24535;45.508;12.252;2023-02-01T06:04:50;102065.03;;;5.76;61.78
38786;BME280;24535;45.508;12.252;2023-02-01T06:07:16;102065.03;;;5.74;61.82
38786;BME280;24535;45.508;12.252;2023-02-01T06:09:41;102066.75;;;5.75;61.37
38786;BME280;24535;45.508;12.252;2023-02-01T06:12:07;102076.28;;;5.78;61.46
38786;BME280;24535;45.508;12.252;2023-02-01T06:14:32;102074.56;;;5.77;61.68
38786;BME280;24535;45.508;12.252;2023-02-01T06:16:58;102077.13;;;5.78;61.57
38786;BME280;24535;45.508;12.252;2023-02-01T06:19:23;102080.59;;;5.80;62.16
38786;BME280;24535;45.508;12.252;2023-02-01T06:21:49;102074.41;;;5.83;62.05
38786;BME280;24535;45.508;12.252;2023-02-01T06:24:14;102081.19;;;5.90;62.38
38786;BME280;24535;45.508;12.252;2023-02-01T06:26:40;102075.03;;;5.94;61.93
38786;BME280;24535;45.508;12.252;2023-02-01T06:29:12;102077.63;;;5.96;62.05
38786;BME280;24535;45.508;12.252;2023-02-01T06:31:38;102075.81;;;5.98;61.69
38786;BME280;24535;45.508;12.252;2023-02-01T06:34:03;102088.81;;;6.01;61.93
38786;BME280;24535;45.508;12.252;2023-02-01T06:36:29;102083.50;;;6.04;61.64
38786;BME280;24535;45.508;12.252;2023-02-01T06:38:55;102082.63;;;6.03;61.60
38786;BME280;24535;45.508;12.252;2023-02-01T06:41:25;102073.91;;;6.04;61.51
38786;BME280;24535;45.508;12.252;2023-02-01T06:43:51;102073.91;;;6.04;61.73
38786;BME280;24535;45.508;12.252;2023-02-01T06:46:16;102061.69;;;6.03;61.64
38786;BME280;24535;45.508;12.252;2023-02-01T06:48:42;102068.66;;;6.04;61.60
38786;BME280;24535;45.508;12.252;2023-02-01T06:51:22;102067.72;;;6.07;61.89
38786;BME280;24535;45.508;12.252;2023-02-01T06:53:47;102071.19;;;6.07;61.79
38786;BME280;24535;45.508;12.252;2023-02-01T06:56:13;102067.69;;;6.08;61.64
38786;BME280;24535;45.508;12.252;2023-02-01T06:58:38;102080.72;;;6.10;61.77
38786;BME280;24535;45.508;12.252;2023-02-01T07:01:06;102071.94;;;6.12;61.18
38786;BME280;24535;45.508;12.252;2023-02-01T07:03:31;102071.09;;;6.12;61.50
38786;BME280;24535;45.508;12.252;2023-02-01T07:05:57;102070.13;;;6.14;61.73
38786;BME280;24535;45.508;12.252;2023-02-01T07:08:30;102067.50;;;6.14;61.49
38786;BME280;24535;45.508;12.252;2023-02-01T07:10:56;102067.50;;;6.14;61.80
38786;BME280;24535;45.508;12.252;2023-02-01T07:13:21;102064.03;;;6.14;61.43
38786;BME280;24535;45.508;12.252;2023-02-01T07:15:47;102074.34;;;6.20;61.64
38786;BME280;24535;45.508;12.252;2023-02-01T07:18:13;102073.41;;;6.23;62.07
38786;BME280;24535;45.508;12.252;2023-02-01T07:20:40;102083.78;;;6.26;61.74
38786;BME280;24535;45.508;12.252;2023-02-01T07:23:05;102088.03;;;6.30;61.45
38786;BME280;24535;45.508;12.252;2023-02-01T07:25:31;102083.59;;;6.32;61.36
38786;BME280;24535;45.508;12.252;2023-02-01T07:27:57;102080.09;;;6.33;61.35
38786;BME280;24535;45.508;12.252;2023-02-01T07:30:23;102086.19;;;6.33;61.59
38786;BME280;24535;45.508;12.252;2023-02-01T07:32:48;102085.34;;;6.33;60.95
38786;BME280;24535;45.508;12.252;2023-02-01T07:35:14;102091.44;;;6.32;60.86
38786;BME280;24535;45.508;12.252;2023-02-01T07:37:40;102093.22;;;6.31;61.10
38786;BME280;24535;45.508;12.252;2023-02-01T07:40:06;102087.13;;;6.31;61.15
38786;BME280;24535;45.508;12.252;2023-02-01T07:42:32;102107.97;;;6.34;61.09
38786;BME280;24535;45.508;12.252;2023-02-01T07:44:59;102105.25;;;6.38;61.13
38786;BME280;24535;45.508;12.252;2023-02-01T07:47:24;102106.00;;;6.42;61.30
38786;BME280;24535;45.508;12.252;2023-02-01T07:49:49;102099.84;;;6.44;61.14
38786;BME280;24535;45.508;12.252;2023-02-01T07:52:15;102112.88;;;6.46;61.67
38786;BME280;24535;45.508;12.252;2023-02-01T07:54:43;102121.44;;;6.53;61.49
38786;BME280;24535;45.508;12.252;2023-02-01T07:57:09;102106.41;;;6.59;61.53
38786;BME280;24535;45.508;12.252;2023-02-01T07:59:36;102101.78;;;6.69;61.11
38786;BME280;24535;45.508;12.252;2023-02-01T08:02:21;102108.59;;;6.75;61.04
38786;BME280;24535;45.508;12.252;2023-02-01T08:04:47;102112.03;;;6.77;61.13
38786;BME280;24535;45.508;12.252;2023-02-01T08:07:12;102117.06;;;6.83;61.15
38786;BME280;24535;45.508;12.252;2023-02-01T08:09:38;102116.91;;;6.89;60.69
38786;BME280;24535;45.508;12.252;2023-02-01T08:12:03;102127.28;;;6.92;60.75
38786;BME280;24535;45.508;12.252;2023-02-01T08:14:29;102124.56;;;6.95;61.08
38786;BME280;24535;45.508;12.252;2023-02-01T08:16:54;102127.03;;;7.01;60.73
38786;BME280;24535;45.508;12.252;2023-02-01T08:19:20;102137.31;;;7.07;61.19
38786;BME280;24535;45.508;12.252;2023-02-01T08:21:45;102124.00;;;7.15;60.56
38786;BME280;24535;45.508;12.252;2023-02-01T08:24:13;102116.06;;;7.16;60.62
38786;BME280;24535;45.508;12.252;2023-02-01T08:26:39;102118.56;;;7.21;60.46
38786;BME280;24535;45.508;12.252;2023-02-01T08:29:06;102119.38;;;7.23;60.75
38786;BME280;24535;45.508;12.252;2023-02-01T08:31:32;102115.69;;;7.29;60.27
38786;BME280;24535;45.508;12.252;2023-02-01T08:33:59;102095.63;;;7.29;60.66
38786;BME280;24535;45.508;12.252;2023-02-01T08:36:28;102104.13;;;7.36;60.35
38786;BME280;24535;45.508;12.252;2023-02-01T08:38:53;102084.81;;;7.38;60.22
38786;BME280;24535;45.508;12.252;2023-02-01T08:41:21;102082.91;;;7.43;60.73
38786;BME280;24535;45.508;12.252;2023-02-01T08:43:47;102079.34;;;7.46;60.50
38786;BME280;24535;45.508;12.252;2023-02-01T08:46:13;102082.66;;;7.51;60.45
38786;BME280;24535;45.508;12.252;2023-02-01T08:48:39;102081.66;;;7.55;60.50
38786;BME280;24535;45.508;12.252;2023-02-01T08:51:07;102088.47;;;7.61;60.74
38786;BME280;24535;45.508;12.252;2023-02-01T08:53:33;102097.69;;;7.73;60.96
38786;BME280;24535;45.508;12.252;2023-02-01T08:55:59;102086.09;;;7.80;60.43
38786;BME280;24535;45.508;12.252;2023-02-01T08:58:29;102090.94;;;7.92;60.41
38786;BME280;24535;45.508;12.252;2023-02-01T09:00:54;102078.50;;;7.97;60.13
38786;BME280;24535;45.508;12.252;2023-02-01T09:03:20;102091.19;;;8.09;60.49
38786;BME280;24535;45.508;12.252;2023-02-01T09:05:46;102089.13;;;8.19;60.61
38786;BME280;24535;45.508;12.252;2023-02-01T09:08:13;102080.84;;;8.30;60.47
38786;BME280;24535;45.508;12.252;2023-02-01T09:10:40;102083.06;;;8.42;60.71
38786;BME280;24535;45.508;12.252;2023-02-01T09:13:06;102080.81;;;8.56;60.44
38786;BME280;24535;45.508;12.252;2023-02-01T09:15:33;102091.66;;;8.71;59.81
38786;BME280;24535;45.508;12.252;2023-02-01T09:17:58;102092.78;;;8.87;60.36
38786;BME280;24535;45.508;12.252;2023-02-01T09:20:23;102088.78;;;9.00;59.51
38786;BME280;24535;45.508;12.252;2023-02-01T09:22:52;102097.84;;;9.15;59.30
38786;BME280;24535;45.508;12.252;2023-02-01T09:25:19;102096.41;;;9.30;59.44
38786;BME280;24535;45.508;12.252;2023-02-01T09:27:45;102103.88;;;9.40;58.91
38786;BME280;24535;45.508;12.252;2023-02-01T09:30:10;102100.94;;;9.48;58.52
38786;BME280;24535;45.508;12.252;2023-02-01T09:32:36;102107.63;;;9.55;58.44
38786;BME280;24535;45.508;12.252;2023-02-01T09:35:02;102098.66;;;9.61;58.30
38786;BME280;24535;45.508;12.252;2023-02-01T09:37:27;102091.31;;;9.69;57.89
38786;BME280;24535;45.508;12.252;2023-02-01T09:39:53;102095.56;;;9.72;57.73
38786;BME280;24535;45.508;12.252;2023-02-01T09:47:23;102105.56;;;9.84;57.48
38786;BME280;24535;45.508;12.252;2023-02-01T09:50:03;102098.41;;;9.87;57.06
38786;BME280;24535;45.508;12.252;2023-02-01T09:52:35;102094.72;;;9.91;56.95
38786;BME280;24535;45.508;12.252;2023-02-01T09:55:16;102094.41;;;9.99;56.87
38786;BME280;24535;45.508;12.252;2023-02-01T09:57:53;102091.38;;;10.08;57.12
38786;BME280;24535;45.508;12.252;2023-02-01T10:00:29;102086.59;;;10.18;57.39
38786;BME280;24535;45.508;12.252;2023-02-01T10:02:55;102080.09;;;10.27;57.35
38786;BME280;24535;45.508;12.252;2023-02-01T10:10:41;102088.31;;;10.39;56.50
38786;BME280;24535;45.508;12.252;2023-02-01T10:22:19;102098.53;;;10.66;55.97
38786;BME280;24535;45.508;12.252;2023-02-01T10:26:45;102088.56;;;10.73;55.87
38786;BME280;24535;45.508;12.252;2023-02-01T10:29:19;102089.28;;;10.76;55.69
38786;BME280;24535;45.508;12.252;2023-02-01T10:31:45;102085.56;;;10.80;55.90
38786;BME280;24535;45.508;12.252;2023-02-01T10:34:30;102093.22;;;10.86;55.06
38786;BME280;24535;45.508;12.252;2023-02-01T10:37:00;102077.94;;;10.93;55.55
38786;BME280;24535;45.508;12.252;2023-02-01T10:39:26;102075.88;;;11.00;55.62
38786;BME280;24535;45.508;12.252;2023-02-01T10:41:54;102081.75;;;11.06;55.48
38786;BME280;24535;45.508;12.252;2023-02-01T10:44:26;102080.59;;;11.12;54.80
38786;BME280;24535;45.508;12.252;2023-02-01T10:46:53;102069.75;;;11.18;54.99
38786;BME280;24535;45.508;12.252;2023-02-01T10:49:43;102072.09;;;11.24;54.39
38786;BME280;24535;45.508;12.252;2023-02-01T10:52:15;102062.16;;;11.29;54.08
38786;BME280;24535;45.508;12.252;2023-02-01T10:54:42;102062.94;;;11.31;54.31
38786;BME280;24535;45.508;12.252;2023-02-01T10:57:23;102065.50;;;11.33;53.29
38786;BME280;24535;45.508;12.252;2023-02-01T10:59:55;102069.06;;;11.32;53.86
38786;BME280;24535;45.508;12.252;2023-02-01T11:02:29;102061.06;;;11.33;53.12
38786;BME280;24535;45.508;12.252;2023-02-01T11:05:13;102077.75;;;11.34;52.68
38786;BME280;24535;45.508;12.252;2023-02-01T11:07:47;102073.41;;;11.33;53.09
38786;BME280;24535;45.508;12.252;2023-02-01T11:10:40;102078.69;;;11.33;51.89
38786;BME280;24535;45.508;12.252;2023-02-01T11:13:31;102072.66;;;11.31;52.66
38786;BME280;24535;45.508;12.252;2023-02-01T11:15:57;102085.13;;;11.27;53.43
38786;BME280;24535;45.508;12.252;2023-02-01T11:18:32;102078.06;;;11.28;52.85
38786;BME280;24535;45.508;12.252;2023-02-01T11:21:00;102070.25;;;11.26;52.89
38786;BME280;24535;45.508;12.252;2023-02-01T11:23:28;102073.72;;;11.27;53.12
38786;BME280;24535;45.508;12.252;2023-02-01T11:25:59;102069.22;;;11.29;52.92
38786;BME280;24535;45.508;12.252;2023-02-01T11:28:37;102063.88;;;11.30;53.27
38786;BME280;24535;45.508;12.252;2023-02-01T11:31:09;102061.16;;;11.32;53.35
38786;BME280;24535;45.508;12.252;2023-02-01T11:33:37;102041.00;;;11.31;52.83
38786;BME280;24535;45.508;12.252;2023-02-01T11:36:14;102042.59;;;11.33;53.30
38786;BME280;24535;45.508;12.252;2023-02-01T11:39:31;102040.91;;;11.32;53.64
38786;BME280;24535;45.508;12.252;2023-02-01T11:41:31;102037.41;;;11.32;53.71
38786;BME280;24535;45.508;12.252;2023-02-01T11:43:59;102049.66;;;11.33;53.33
38786;BME280;24535;45.508;12.252;2023-02-01T11:46:33;102034.63;;;11.35;53.29
38786;BME280;24535;45.508;12.252;2023-02-01T11:49:25;102028.44;;;11.36;52.67
38786;BME280;24535;45.508;12.252;2023-02-01T11:54:36;102013.53;;;11.35;52.51
38786;BME280;24535;45.508;12.252;2023-02-01T11:57:17;102026.78;;;11.33;52.95
38786;BME280;24535;45.508;12.252;2023-02-01T12:02:29;101999.88;;;11.27;53.76
38786;BME280;24535;45.508;12.252;2023-02-01T12:07:42;102001.00;;;11.21;53.83
38786;BME280;24535;45.508;12.252;2023-02-01T12:10:28;101998.59;;;11.17;54.01
38786;BME280;24535;45.508;12.252;2023-02-01T12:19:21;101987.81;;;11.04;53.47
38786;BME280;24535;45.508;12.252;2023-02-01T12:24:37;101994.91;;;11.02;53.76
38786;BME280;24535;45.508;12.252;2023-02-01T12:30:19;101984.53;;;10.99;53.76
38786;BME280;24535;45.508;12.252;2023-02-01T12:38:53;101961.09;;;10.93;53.91
38786;BME280;24535;45.508;12.252;2023-02-01T12:43:59;101960.16;;;10.94;53.82
38786;BME280;24535;45.508;12.252;2023-02-01T12:46:37;101950.41;;;10.96;53.46
38786;BME280;24535;45.508;12.252;2023-02-01T12:51:40;101926.78;;;10.94;53.71
38786;BME280;24535;45.508;12.252;2023-02-01T12:54:38;101933.75;;;10.95;53.48
38786;BME280;24535;45.508;12.252;2023-02-01T12:57:14;101921.50;;;10.94;53.40
38786;BME280;24535;45.508;12.252;2023-02-01T12:59:51;101930.31;;;10.93;53.37
38786;BME280;24535;45.508;12.252;2023-02-01T13:02:27;101931.16;;;10.94;53.34
38786;BME280;24535;45.508;12.252;2023-02-01T13:05:03;101940.72;;;10.96;53.52
38786;BME280;24535;45.508;12.252;2023-02-01T13:07:39;101939.94;;;10.94;53.67
38786;BME280;24535;45.508;12.252;2023-02-01T13:15:23;101925.03;;;10.93;53.42
38786;BME280;24535;45.508;12.252;2023-02-01T13:17:52;101924.13;;;10.94;53.88
38786;BME280;24535;45.508;12.252;2023-02-01T13:20:35;101908.38;;;10.93;53.31
38786;BME280;24535;45.508;12.252;2023-02-01T13:23:03;101904.88;;;10.92;53.73
38786;BME280;24535;45.508;12.252;2023-02-01T13:25:49;101900.53;;;10.91;53.34
38786;BME280;24535;45.508;12.252;2023-02-01T13:28:26;101915.56;;;10.89;54.09
38786;BME280;24535;45.508;12.252;2023-02-01T13:36:48;101899.75;;;10.89;54.09
38786;BME280;24535;45.508;12.252;2023-02-01T13:39:47;101885.72;;;10.88;53.64
38786;BME280;24535;45.508;12.252;2023-02-01T13:42:25;101887.50;;;10.88;53.97
38786;BME280;24535;45.508;12.252;2023-02-01T13:45:03;101884.88;;;10.88;53.56
38786;BME280;24535;45.508;12.252;2023-02-01T13:47:45;101894.47;;;10.89;53.43
38786;BME280;24535;45.508;12.252;2023-02-01T13:50:37;101896.22;;;10.90;54.10
38786;BME280;24535;45.508;12.252;2023-02-01T13:55:41;101893.78;;;10.85;54.21
38786;BME280;24535;45.508;12.252;2023-02-01T13:58:28;101890.16;;;10.88;53.85
38786;BME280;24535;45.508;12.252;2023-02-01T14:01:31;101891.09;;;10.87;54.03
38786;BME280;24535;45.508;12.252;2023-02-01T14:04:00;101887.50;;;10.88;54.24
38786;BME280;24535;45.508;12.252;2023-02-01T14:11:44;101888.44;;;10.87;53.79
38786;BME280;24535;45.508;12.252;2023-02-01T14:19:23;101888.44;;;10.87;53.93
38786;BME280;24535;45.508;12.252;2023-02-01T14:21:51;101889.38;;;10.86;54.15
38786;BME280;24535;45.508;12.252;2023-02-01T14:24:24;101889.38;;;10.86;53.84
38786;BME280;24535;45.508;12.252;2023-02-01T14:26:54;101893.00;;;10.83;54.03
38786;BME280;24535;45.508;12.252;2023-02-01T14:34:21;101896.50;;;10.84;53.82
38786;BME280;24535;45.508;12.252;2023-02-01T14:36:51;101892.06;;;10.84;53.82
38786;BME280;24535;45.508;12.252;2023-02-01T14:39:38;101901.69;;;10.85;53.47
38786;BME280;24535;45.508;12.252;2023-02-01T14:44:39;101905.34;;;10.83;54.11
38786;BME280;24535;45.508;12.252;2023-02-01T14:49:37;101901.06;;;10.80;54.09
38786;BME280;24535;45.508;12.252;2023-02-01T14:52:09;101886.09;;;10.81;54.16
38786;BME280;24535;45.508;12.252;2023-02-01T14:54:36;101882.69;;;10.79;53.83
38786;BME280;24535;45.508;12.252;2023-02-01T14:57:03;101874.72;;;10.80;54.19